Kamikawa Maru — JG5687 — position and weather

sailwx.info

Track history (hours):
 
Tides and Currents Weather Stations Pressure Air Temp Water Temp Dewpoint Dewpoint Depression Visibility Wind Speed Wind Dir Waves Ship Positions

Kamikawa Maru

Last reported at 2017-Nov-14 13:56 UTC. Time now 2017-Nov-17 21:20 UTC.
Position N 34°53' E 140°02'.

Length 162 m; draft 6.8 m.

Type: Cargo ship. MMSI: 431101012.

Date/timePositionNaut miles runAvg speedWind from/ knotsBaromVisibWave heightAir tempDewpointWater temp
2017-Nov-14 13:56N 34°53' E 140°02'1218.0
2017-Nov-14 13:17N 34°51' E 139°48'619.7
2017-Nov-14 13:00N 34°54' E 139°42'816.4
2017-Nov-14 12:31N 35°02' E 139°42'919.0
2017-Nov-14 12:01N 35°11' E 139°46'713.2
2017-Nov-14 11:30N 35°17' E 139°45'714.1
2017-Nov-14 11:00N 35°24' E 139°43'918.8
2017-Nov-14 10:30N 35°31' E 139°51'815.2
2017-Nov-14 09:59N 35°38' E 139°46'0 0.0
2017-Nov-13 23:36N 35°38' E 139°46'0 2.4
2017-Nov-13 23:28N 35°38' E 139°46'713.9
2017-Nov-13 23:00N 35°33' E 139°51'816.1
2017-Nov-13 22:30N 35°25' E 139°48'713.4
2017-Nov-13 22:00N 35°19' E 139°44'28 0.8
2017-Nov-12 09:03N 34°55' E 139°26'219.6
2017-Nov-12 08:57N 34°57' E 139°28'819.1
2017-Nov-12 08:30N 35°02' E 139°36'1019.2
2017-Nov-12 08:00N 35°09' E 139°44'715.0
2017-Nov-12 07:31N 35°16' E 139°46'713.8
2017-Nov-12 07:01N 35°22' E 139°42'1019.1
2017-Nov-12 06:31N 35°29' E 139°50'815.6
2017-Nov-12 06:00N 35°36' E 139°46'2 0.3
2017-Nov-11 23:36N 35°38' E 139°46'0 1.1
2017-Nov-11 23:30N 35°38' E 139°46'611.3
2017-Nov-11 23:00N 35°34' E 139°50'713.4
2017-Nov-11 22:30N 35°27' E 139°49'713.5
2017-Nov-11 22:00N 35°21' E 139°45'511.1
2017-Nov-11 21:31N 35°16' E 139°47'612.4
2017-Nov-11 21:00N 35°10' E 139°47'815.7
2017-Nov-11 20:30N 35°02' E 139°44'1013.0
2017-Nov-11 19:46N 34°53' E 139°48'916.5
2017-Nov-11 19:12N 34°54' E 139°60'  
2017-Nov-07 13:02N 34°59' E 139°40'220.0
2017-Nov-07 12:56N 35°01' E 139°41'819.0
2017-Nov-07 12:30N 35°08' E 139°45'814.5
2017-Nov-07 11:56N 35°17' E 139°45'613.1
2017-Nov-07 11:30N 35°22' E 139°42'918.5
2017-Nov-07 11:00N 35°29' E 139°50'814.8
2017-Nov-07 10:29N 35°36' E 139°47'2 0.2
2017-Nov-06 23:48N 35°38' E 139°46'0 0.4
2017-Nov-06 23:30N 35°38' E 139°46'510.6
2017-Nov-06 23:00N 35°34' E 139°49'713.6
2017-Nov-06 22:30N 35°27' E 139°49'714.4
2017-Nov-06 22:00N 35°21' E 139°45'611.9
2017-Nov-06 21:30N 35°15' E 139°47'714.1
2017-Nov-06 21:00N 35°08' E 139°46'28 1.1
2017-Nov-05 18:42N 34°42' E 139°34'418.8
2017-Nov-05 18:31N 34°43' E 139°38'1017.7
2017-Nov-05 17:57N 34°48' E 139°49'1017.5
2017-Nov-05 17:21N 34°52' E 139°60'  
Track history (hours):
 
Tides and Currents Weather Stations Pressure Air Temp Water Temp Dewpoint Dewpoint Depression Visibility Wind Speed Wind Dir Waves Ship Positions

Kamikawa Maru

Last reported at 2017-Nov-14 13:56 UTC. Time now 2017-Nov-17 21:20 UTC.
Position N 34°53' E 140°02'.

Length 162 m; draft 6.8 m.

Type: Cargo ship. MMSI: 431101012.

Date/timePositionNaut miles runAvg speedWind from/ knotsBaromVisibWave heightAir tempDewpointWater temp
2017-Nov-14 13:56N 34°53' E 140°02'1218.0
2017-Nov-14 13:17N 34°51' E 139°48'619.7
2017-Nov-14 13:00N 34°54' E 139°42'816.4
2017-Nov-14 12:31N 35°02' E 139°42'919.0
2017-Nov-14 12:01N 35°11' E 139°46'713.2
2017-Nov-14 11:30N 35°17' E 139°45'714.1
2017-Nov-14 11:00N 35°24' E 139°43'918.8
2017-Nov-14 10:30N 35°31' E 139°51'815.2
2017-Nov-14 09:59N 35°38' E 139°46'0 0.0
2017-Nov-13 23:36N 35°38' E 139°46'0 2.4
2017-Nov-13 23:28N 35°38' E 139°46'713.9
2017-Nov-13 23:00N 35°33' E 139°51'816.1
2017-Nov-13 22:30N 35°25' E 139°48'713.4
2017-Nov-13 22:00N 35°19' E 139°44'28 0.8
2017-Nov-12 09:03N 34°55' E 139°26'219.6
2017-Nov-12 08:57N 34°57' E 139°28'819.1
2017-Nov-12 08:30N 35°02' E 139°36'1019.2
2017-Nov-12 08:00N 35°09' E 139°44'715.0
2017-Nov-12 07:31N 35°16' E 139°46'713.8
2017-Nov-12 07:01N 35°22' E 139°42'1019.1
2017-Nov-12 06:31N 35°29' E 139°50'815.6
2017-Nov-12 06:00N 35°36' E 139°46'2 0.3
2017-Nov-11 23:36N 35°38' E 139°46'0 1.1
2017-Nov-11 23:30N 35°38' E 139°46'611.3
2017-Nov-11 23:00N 35°34' E 139°50'713.4
2017-Nov-11 22:30N 35°27' E 139°49'713.5
2017-Nov-11 22:00N 35°21' E 139°45'511.1
2017-Nov-11 21:31N 35°16' E 139°47'612.4
2017-Nov-11 21:00N 35°10' E 139°47'815.7
2017-Nov-11 20:30N 35°02' E 139°44'1013.0
2017-Nov-11 19:46N 34°53' E 139°48'916.5
2017-Nov-11 19:12N 34°54' E 139°60'  
2017-Nov-07 13:02N 34°59' E 139°40'220.0
2017-Nov-07 12:56N 35°01' E 139°41'819.0
2017-Nov-07 12:30N 35°08' E 139°45'814.5
2017-Nov-07 11:56N 35°17' E 139°45'613.1
2017-Nov-07 11:30N 35°22' E 139°42'918.5
2017-Nov-07 11:00N 35°29' E 139°50'814.8
2017-Nov-07 10:29N 35°36' E 139°47'2 0.2
2017-Nov-06 23:48N 35°38' E 139°46'0 0.4
2017-Nov-06 23:30N 35°38' E 139°46'510.6
2017-Nov-06 23:00N 35°34' E 139°49'713.6
2017-Nov-06 22:30N 35°27' E 139°49'714.4
2017-Nov-06 22:00N 35°21' E 139°45'611.9
2017-Nov-06 21:30N 35°15' E 139°47'714.1
2017-Nov-06 21:00N 35°08' E 139°46'28 1.1
2017-Nov-05 18:42N 34°42' E 139°34'418.8
2017-Nov-05 18:31N 34°43' E 139°38'1017.7
2017-Nov-05 17:57N 34°48' E 139°49'1017.5
2017-Nov-05 17:21N 34°52' E 139°60'  

Dump ship's entire track history